createdAt,value
2023-01-07T00:01:09.257Z,17.17
2023-01-07T00:03:36.749Z,16.75
2023-01-07T00:06:09.505Z,15.23
2023-01-07T00:08:38.938Z,17.83
2023-01-07T00:11:08.814Z,15.00
2023-01-07T00:13:36.562Z,16.48
2023-01-07T00:16:11.239Z,16.45
2023-01-07T00:18:38.726Z,15.25
2023-01-07T00:21:09.104Z,15.65
2023-01-07T00:23:37.085Z,13.80
2023-01-07T00:26:06.263Z,13.68
2023-01-07T00:28:39.209Z,14.60
2023-01-07T00:31:11.728Z,14.35
2023-01-07T00:33:53.793Z,14.07
2023-01-07T00:36:23.076Z,13.70
2023-01-07T00:38:55.563Z,13.88
2023-01-07T00:41:23.016Z,16.17
2023-01-07T00:43:50.141Z,16.95
2023-01-07T00:46:17.834Z,13.95
2023-01-07T00:48:45.803Z,12.73
2023-01-07T00:51:15.404Z,14.13
2023-01-07T00:53:42.469Z,12.88
2023-01-07T00:56:10.330Z,15.25
2023-01-07T00:58:37.782Z,12.80
2023-01-07T01:01:05.004Z,13.32
2023-01-07T01:03:33.096Z,12.15
2023-01-07T01:06:05.024Z,13.52
2023-01-07T01:08:32.369Z,10.77
2023-01-07T01:11:06.792Z,12.13
2023-01-07T01:13:34.941Z,12.55
2023-01-07T01:16:02.307Z,12.00
2023-01-07T01:18:29.214Z,12.27
2023-01-07T01:20:56.159Z,12.15
2023-01-07T01:23:23.016Z,10.60
2023-01-07T01:25:49.946Z,11.05
2023-01-07T01:28:16.794Z,8.98
2023-01-07T01:30:43.578Z,4.50
2023-01-07T01:33:11.604Z,2.22
2023-01-07T01:35:42.211Z,2.28
2023-01-07T01:38:09.623Z,1.95
2023-01-07T01:40:37.511Z,5.47
2023-01-07T01:43:23.785Z,7.55
2023-01-07T01:45:50.908Z,7.35
2023-01-07T01:48:20.301Z,7.80
2023-01-07T01:50:49.364Z,4.68
2023-01-07T01:53:21.923Z,3.53
2023-01-07T01:55:58.572Z,1.67
2023-01-07T01:58:37.167Z,5.65
2023-01-07T02:01:05.250Z,5.50
2023-01-07T02:03:35.513Z,4.45
2023-01-07T02:06:02.814Z,4.93
2023-01-07T02:08:30.121Z,4.47
2023-01-07T02:11:21.968Z,3.13
2023-01-07T02:14:10.051Z,2.60
2023-01-07T02:16:45.895Z,2.47
2023-01-07T02:19:40.348Z,2.30
2023-01-07T02:22:30.776Z,2.35
2023-01-07T02:25:18.741Z,1.52
2023-01-07T02:27:45.701Z,1.20
2023-01-07T02:30:46.084Z,1.08
2023-01-07T02:33:28.573Z,1.55
2023-01-07T02:36:14.765Z,1.33
2023-01-07T02:38:51.371Z,1.50
2023-01-07T02:41:31.543Z,1.83
2023-01-07T02:44:12.071Z,2.33
2023-01-07T02:46:54.403Z,1.52
2023-01-07T02:49:21.695Z,1.02
2023-01-07T02:51:48.882Z,1.15
2023-01-07T02:54:21.689Z,1.65
2023-01-07T02:57:09.750Z,1.00
2023-01-07T03:00:04.428Z,1.17
2023-01-07T03:02:47.065Z,1.02
2023-01-07T03:05:58.533Z,1.15
2023-01-07T03:08:46.801Z,1.23
2023-01-07T03:11:14.953Z,0.80
2023-01-07T03:13:46.851Z,1.30
2023-01-07T03:16:40.106Z,0.80
2023-01-07T03:19:39.850Z,1.13
2023-01-07T03:22:08.250Z,1.08
2023-01-07T03:24:35.976Z,1.13
2023-01-07T03:27:06.162Z,1.08
2023-01-07T03:29:35.705Z,0.70
2023-01-07T03:32:18.778Z,1.00
2023-01-07T03:34:46.128Z,0.82
2023-01-07T03:37:20.733Z,0.70
2023-01-07T03:39:48.316Z,0.95
2023-01-07T03:42:40.361Z,0.77
2023-01-07T03:45:18.975Z,1.08
2023-01-07T03:47:50.890Z,0.90
2023-01-07T03:50:19.390Z,0.88
2023-01-07T03:52:51.092Z,1.15
2023-01-07T03:55:19.843Z,0.75
2023-01-07T03:57:48.819Z,1.08
2023-01-07T04:00:17.302Z,0.93
2023-01-07T04:02:51.661Z,2.25
2023-01-07T04:05:26.076Z,0.88
2023-01-07T04:07:53.244Z,1.00
2023-01-07T04:10:21.356Z,1.02
2023-01-07T04:12:48.228Z,0.70
2023-01-07T04:15:15.101Z,1.02
2023-01-07T04:17:41.926Z,1.00
2023-01-07T04:20:10.305Z,1.08
2023-01-07T04:22:37.523Z,0.77
2023-01-07T04:25:06.332Z,3.22
2023-01-07T04:27:34.273Z,1.10
2023-01-07T04:30:01.978Z,1.15
2023-01-07T04:32:34.054Z,1.25
2023-01-07T04:35:01.327Z,1.25
2023-01-07T04:37:29.712Z,0.98
2023-01-07T04:39:57.307Z,1.45
2023-01-07T04:42:24.262Z,1.48
2023-01-07T04:44:51.558Z,1.38
2023-01-07T04:47:18.391Z,2.20
2023-01-07T04:49:45.545Z,2.63
2023-01-07T04:52:12.701Z,3.78
2023-01-07T04:54:39.642Z,5.18
2023-01-07T04:57:06.745Z,4.38
2023-01-07T04:59:33.837Z,5.70
2023-01-07T05:02:02.296Z,7.95
2023-01-07T05:04:29.536Z,6.20
2023-01-07T05:06:57.771Z,6.95
2023-01-07T05:09:25.995Z,7.10
2023-01-07T05:11:52.866Z,8.18
2023-01-07T05:14:19.922Z,9.23
2023-01-07T05:16:51.122Z,8.35
2023-01-07T05:19:19.106Z,9.93
2023-01-07T05:21:48.505Z,10.07
2023-01-07T05:24:16.500Z,9.02
2023-01-07T05:26:43.741Z,9.20
2023-01-07T05:29:10.719Z,9.25
2023-01-07T05:31:38.959Z,8.77
2023-01-07T05:34:06.257Z,9.32
2023-01-07T05:36:33.598Z,8.65
2023-01-07T05:39:00.599Z,9.15
2023-01-07T05:41:27.790Z,7.40
2023-01-07T05:43:55.870Z,9.27
2023-01-07T05:46:22.784Z,8.95
2023-01-07T05:48:49.686Z,8.55
2023-01-07T05:51:16.512Z,9.20
2023-01-07T05:53:43.950Z,8.00
2023-01-07T05:56:10.728Z,8.35
2023-01-07T05:58:37.572Z,9.85
2023-01-07T06:01:04.567Z,11.13
2023-01-07T06:03:31.519Z,11.60
2023-01-07T06:05:58.483Z,11.50
2023-01-07T06:08:25.299Z,11.75
2023-01-07T06:10:52.088Z,12.73
2023-01-07T06:13:19.060Z,12.05
2023-01-07T06:15:45.903Z,11.00
2023-01-07T06:18:12.802Z,12.07
2023-01-07T06:20:39.622Z,15.02
2023-01-07T06:23:06.574Z,10.35
2023-01-07T06:25:33.472Z,11.68
2023-01-07T06:28:00.271Z,10.85
2023-01-07T06:30:27.283Z,10.32
2023-01-07T06:32:54.387Z,12.45
2023-01-07T06:35:21.795Z,11.63
2023-01-07T06:37:48.643Z,11.65
2023-01-07T06:40:15.700Z,11.95
2023-01-07T06:42:42.577Z,13.07
2023-01-07T06:45:11.496Z,11.63
2023-01-07T06:47:38.516Z,11.68
2023-01-07T06:50:05.774Z,10.93
2023-01-07T06:52:33.877Z,13.13
2023-01-07T06:55:00.697Z,13.32
2023-01-07T06:57:28.063Z,13.05
2023-01-07T06:59:54.853Z,13.45
2023-01-07T07:02:25.030Z,16.70
2023-01-07T07:04:52.556Z,12.98
2023-01-07T07:07:20.515Z,12.35
2023-01-07T07:09:48.228Z,11.95
2023-01-07T07:12:15.234Z,12.27
2023-01-07T07:14:42.281Z,12.48
2023-01-07T07:17:09.866Z,12.35
2023-01-07T07:19:39.732Z,12.10
2023-01-07T07:22:06.544Z,12.55
2023-01-07T07:24:33.832Z,13.40
2023-01-07T07:27:00.651Z,13.65
2023-01-07T07:29:27.931Z,11.70
2023-01-07T07:31:54.778Z,12.52
2023-01-07T07:34:21.592Z,12.25
2023-01-07T07:36:50.868Z,12.68
2023-01-07T07:39:17.793Z,12.82
2023-01-07T07:41:44.863Z,14.20
2023-01-07T07:44:11.722Z,13.50
2023-01-07T07:46:40.628Z,11.95
2023-01-07T07:49:08.223Z,12.80
2023-01-07T07:51:35.272Z,12.18
2023-01-07T07:54:02.025Z,10.65
2023-01-07T07:56:28.821Z,11.15
2023-01-07T07:58:55.630Z,11.55
2023-01-07T08:01:22.596Z,10.77
2023-01-07T08:03:49.451Z,12.63
2023-01-07T08:06:16.288Z,11.75
2023-01-07T08:08:43.574Z,16.65
2023-01-07T08:11:10.916Z,12.88
2023-01-07T08:13:37.637Z,12.02
2023-01-07T08:16:04.794Z,12.38
2023-01-07T08:18:31.680Z,12.52
2023-01-07T08:20:58.715Z,13.20
2023-01-07T08:23:27.938Z,13.93
2023-01-07T08:25:58.836Z,13.77
2023-01-07T08:28:25.594Z,11.88
2023-01-07T08:30:52.455Z,12.57
2023-01-07T08:33:19.312Z,12.98
2023-01-07T08:35:46.237Z,13.15
2023-01-07T08:38:13.027Z,12.55
2023-01-07T08:40:40.056Z,13.23
2023-01-07T08:43:08.834Z,12.75
2023-01-07T08:45:36.369Z,12.45
2023-01-07T08:48:03.435Z,13.43
2023-01-07T08:50:33.080Z,13.13
2023-01-07T08:53:00.227Z,11.18
2023-01-07T08:55:27.144Z,13.50
2023-01-07T08:57:53.944Z,13.00
2023-01-07T09:00:21.647Z,13.80
2023-01-07T09:02:51.142Z,12.55
2023-01-07T09:05:18.297Z,13.13
2023-01-07T09:07:45.147Z,12.57
2023-01-07T09:10:11.935Z,11.40
2023-01-07T09:12:38.970Z,13.65
2023-01-07T09:15:06.413Z,11.68
2023-01-07T09:17:33.689Z,11.35
2023-01-07T09:20:03.601Z,9.70
2023-01-07T09:22:31.909Z,11.55
2023-01-07T09:24:58.939Z,11.40
2023-01-07T09:27:27.069Z,11.35
2023-01-07T09:29:54.723Z,11.50
2023-01-07T09:32:21.991Z,11.70
2023-01-07T09:34:48.848Z,11.93
2023-01-07T09:37:19.030Z,11.18
2023-01-07T09:39:45.997Z,9.57
2023-01-07T09:42:37.058Z,10.13
2023-01-07T09:45:20.325Z,9.43
2023-01-07T09:47:50.988Z,9.00
2023-01-07T09:50:48.253Z,8.13
2023-01-07T09:53:26.967Z,7.93
2023-01-07T09:56:10.667Z,8.90
2023-01-07T09:58:44.354Z,10.13
2023-01-07T10:01:32.231Z,9.63
2023-01-07T10:04:10.966Z,9.57
2023-01-07T10:06:53.672Z,10.13
2023-01-07T10:09:44.015Z,9.85
2023-01-07T10:12:20.500Z,9.45
2023-01-07T10:15:11.035Z,8.55
2023-01-07T10:18:00.845Z,10.30
2023-01-07T10:20:27.843Z,9.77
2023-01-07T10:23:02.734Z,11.27
2023-01-07T10:25:39.970Z,10.25
2023-01-07T10:28:16.209Z,10.70
2023-01-07T10:30:46.231Z,10.52
2023-01-07T10:33:18.255Z,9.95
2023-01-07T10:35:47.925Z,11.45
2023-01-07T10:38:20.536Z,12.35
2023-01-07T10:40:56.969Z,13.32
2023-01-07T10:43:50.057Z,16.13
2023-01-07T10:46:41.244Z,12.40
2023-01-07T10:49:26.105Z,12.05
2023-01-07T10:52:26.971Z,12.35
2023-01-07T10:55:02.650Z,10.50
2023-01-07T10:57:31.472Z,12.90
2023-01-07T11:00:02.654Z,12.15
2023-01-07T11:02:30.453Z,12.55
2023-01-07T11:04:59.160Z,12.48
2023-01-07T11:07:46.765Z,12.40
2023-01-07T11:10:26.206Z,10.18
2023-01-07T11:12:57.192Z,11.70
2023-01-07T11:15:31.111Z,10.52
2023-01-07T11:18:00.765Z,9.82
2023-01-07T11:20:45.587Z,9.73
2023-01-07T11:23:39.662Z,9.50
2023-01-07T11:26:10.043Z,9.63
2023-01-07T11:28:40.680Z,10.13
2023-01-07T11:31:07.467Z,10.10
2023-01-07T11:34:01.308Z,10.77
2023-01-07T11:36:41.604Z,10.60
2023-01-07T11:39:11.627Z,11.43
2023-01-07T11:41:55.728Z,11.93
2023-01-07T11:44:22.644Z,11.25
2023-01-07T11:46:49.768Z,10.98
2023-01-07T11:49:31.879Z,11.57
2023-01-07T11:51:59.038Z,9.82
2023-01-07T11:54:29.006Z,10.23
2023-01-07T11:57:13.720Z,10.38
2023-01-07T11:59:40.519Z,10.20
2023-01-07T12:02:24.762Z,11.02
2023-01-07T12:05:26.258Z,9.98
2023-01-07T12:07:53.996Z,14.35
2023-01-07T12:10:29.525Z,10.20
2023-01-07T12:12:56.525Z,11.60
2023-01-07T12:15:28.485Z,12.82
2023-01-07T12:18:07.559Z,10.52
2023-01-07T12:20:41.244Z,9.95
2023-01-07T12:23:31.517Z,11.10
2023-01-07T12:26:14.326Z,10.45
2023-01-07T12:28:44.087Z,9.02
2023-01-07T12:31:27.556Z,9.07
2023-01-07T12:34:07.723Z,10.93
2023-01-07T12:36:42.431Z,10.85
2023-01-07T12:39:22.247Z,9.70
2023-01-07T12:42:02.447Z,10.00
2023-01-07T12:44:29.329Z,10.40
2023-01-07T12:47:32.569Z,10.35
2023-01-07T12:50:18.197Z,10.60
2023-01-07T12:53:18.434Z,12.27
2023-01-07T12:56:02.724Z,10.48
2023-01-07T12:58:35.226Z,12.88
2023-01-07T13:01:28.433Z,12.93
2023-01-07T13:03:58.061Z,10.38
2023-01-07T13:06:33.732Z,11.65
2023-01-07T13:09:24.702Z,9.55
2023-01-07T13:12:41.612Z,10.80
2023-01-07T13:15:16.579Z,10.63
2023-01-07T13:17:43.833Z,10.40
2023-01-07T13:20:15.413Z,13.80
2023-01-07T13:22:56.267Z,12.32
2023-01-07T13:26:00.615Z,11.68
2023-01-07T13:28:42.357Z,12.52
2023-01-07T13:31:42.775Z,11.68
2023-01-07T13:34:28.338Z,9.95
2023-01-07T13:37:12.761Z,10.32
2023-01-07T13:40:20.129Z,10.38
2023-01-07T13:43:07.795Z,11.60
2023-01-07T13:45:36.402Z,11.13
2023-01-07T13:48:08.143Z,12.45
2023-01-07T13:50:44.275Z,13.25
2023-01-07T13:53:16.888Z,12.02
2023-01-07T13:55:46.029Z,11.32
2023-01-07T13:58:31.109Z,13.48
2023-01-07T14:01:15.040Z,11.23
2023-01-07T14:03:53.183Z,13.82
2023-01-07T14:06:20.089Z,11.10
2023-01-07T14:09:13.470Z,10.32
2023-01-07T14:12:07.565Z,12.63
2023-01-07T14:14:40.453Z,11.70
2023-01-07T14:17:19.293Z,11.77
2023-01-07T14:20:12.145Z,11.50
2023-01-07T14:22:43.348Z,10.77
2023-01-07T14:25:28.746Z,13.35
2023-01-07T14:27:55.475Z,11.23
2023-01-07T14:30:27.132Z,11.50
2023-01-07T14:33:27.443Z,11.35
2023-01-07T14:36:04.304Z,10.95
2023-01-07T14:38:34.096Z,11.40
2023-01-07T14:41:16.197Z,11.25
2023-01-07T14:43:45.909Z,10.98
2023-01-07T14:46:22.299Z,12.80
2023-01-07T14:49:01.612Z,12.57
2023-01-07T14:51:36.153Z,11.25
2023-01-07T14:54:12.114Z,14.77
2023-01-07T14:57:05.340Z,11.80
2023-01-07T15:00:02.517Z,12.35
2023-01-07T15:03:04.882Z,13.82
2023-01-07T15:05:56.003Z,12.98
2023-01-07T15:08:44.805Z,12.52
2023-01-07T15:11:38.502Z,13.45
2023-01-07T15:14:32.584Z,14.50
2023-01-07T15:16:59.925Z,13.45
2023-01-07T15:19:26.839Z,16.40
2023-01-07T15:22:32.307Z,16.35
2023-01-07T15:25:34.526Z,17.80
2023-01-07T15:28:20.064Z,13.23
2023-01-07T15:30:57.060Z,13.98
2023-01-07T15:33:39.218Z,14.77
2023-01-07T15:36:11.459Z,12.45
2023-01-07T15:38:42.717Z,12.77
2023-01-07T15:41:29.211Z,12.63
2023-01-07T15:43:56.746Z,13.68
2023-01-07T15:46:25.507Z,13.02
2023-01-07T15:49:15.262Z,12.40
2023-01-07T15:51:45.101Z,12.55
2023-01-07T15:54:26.742Z,12.13
2023-01-07T15:57:02.724Z,13.48
2023-01-07T15:59:33.041Z,15.43
2023-01-07T16:02:24.984Z,11.43
2023-01-07T16:04:59.596Z,9.82
2023-01-07T16:07:29.929Z,12.15
2023-01-07T16:09:58.300Z,11.82
2023-01-07T16:12:49.371Z,14.45
2023-01-07T16:15:32.603Z,12.35
2023-01-07T16:18:02.048Z,12.05
2023-01-07T16:20:35.134Z,13.10
2023-01-07T16:23:11.269Z,11.43
2023-01-07T16:25:44.160Z,12.10
2023-01-07T16:28:20.749Z,11.52
2023-01-07T16:30:48.824Z,11.70
2023-01-07T16:33:18.649Z,14.63
2023-01-07T16:35:47.413Z,12.35
2023-01-07T16:38:15.497Z,12.70
2023-01-07T16:40:42.647Z,13.25
2023-01-07T16:43:33.175Z,12.30
2023-01-07T16:46:19.660Z,19.17
2023-01-07T16:48:48.548Z,10.93
2023-01-07T16:51:36.937Z,11.40
2023-01-07T16:54:31.747Z,10.95
2023-01-07T16:57:01.709Z,12.45
2023-01-07T16:59:53.609Z,12.40
2023-01-07T17:02:32.877Z,14.23
2023-01-07T17:05:19.348Z,11.43
2023-01-07T17:07:49.671Z,11.95
2023-01-07T17:10:20.773Z,11.40
2023-01-07T17:12:57.786Z,12.05
2023-01-07T17:15:39.415Z,11.40
2023-01-07T17:18:12.565Z,12.48
2023-01-07T17:21:00.114Z,11.15
2023-01-07T17:23:26.985Z,10.50
2023-01-07T17:26:02.225Z,10.60
2023-01-07T17:28:35.957Z,10.35
2023-01-07T17:31:03.629Z,12.98
2023-01-07T17:33:30.378Z,11.80
2023-01-07T17:35:57.587Z,13.60
2023-01-07T17:38:24.571Z,11.88
2023-01-07T17:40:52.155Z,14.88
2023-01-07T17:43:33.544Z,13.50
2023-01-07T17:46:11.850Z,14.13
2023-01-07T17:48:39.286Z,15.18
2023-01-07T17:51:07.156Z,13.60
2023-01-07T17:53:45.737Z,15.63
2023-01-07T17:56:12.745Z,16.83
2023-01-07T17:58:41.270Z,15.55
2023-01-07T18:01:10.207Z,15.77
2023-01-07T18:03:37.405Z,15.73
2023-01-07T18:06:11.978Z,13.90
2023-01-07T18:08:38.837Z,13.20
2023-01-07T18:11:24.186Z,16.58
2023-01-07T18:13:53.336Z,17.58
2023-01-07T18:16:20.641Z,13.25
2023-01-07T18:18:47.491Z,14.32
2023-01-07T18:21:14.262Z,14.10
2023-01-07T18:23:41.167Z,13.82
2023-01-07T18:26:08.215Z,14.25
2023-01-07T18:28:34.971Z,14.75
2023-01-07T18:31:01.904Z,13.20
2023-01-07T18:33:28.750Z,14.68
2023-01-07T18:35:55.541Z,15.48
2023-01-07T18:38:22.340Z,15.27
2023-01-07T18:40:49.135Z,16.38
2023-01-07T18:43:18.002Z,16.70
2023-01-07T18:45:45.855Z,15.52
2023-01-07T18:48:14.650Z,17.05
2023-01-07T18:50:43.228Z,15.55
2023-01-07T18:53:10.837Z,17.02
2023-01-07T18:55:39.418Z,17.30
2023-01-07T18:58:11.898Z,15.55
2023-01-07T19:00:42.469Z,15.80
2023-01-07T19:03:10.634Z,15.32
2023-01-07T19:05:41.028Z,16.17
2023-01-07T19:08:08.068Z,17.60
2023-01-07T19:10:34.885Z,18.95
2023-01-07T19:13:01.724Z,17.20
2023-01-07T19:15:28.794Z,18.10
2023-01-07T19:17:55.919Z,15.82
2023-01-07T19:20:22.884Z,25.77
2023-01-07T19:22:49.711Z,22.95
2023-01-07T19:25:16.566Z,18.45
2023-01-07T19:27:43.545Z,19.05
2023-01-07T19:30:11.966Z,17.33
2023-01-07T19:32:38.867Z,18.98
2023-01-07T19:35:06.329Z,18.90
2023-01-07T19:37:33.091Z,18.77
2023-01-07T19:40:01.137Z,21.38
2023-01-07T19:42:27.891Z,19.35
2023-01-07T19:44:54.763Z,18.42
2023-01-07T19:47:22.327Z,17.80
2023-01-07T19:49:49.080Z,18.40
2023-01-07T19:52:16.394Z,24.45
2023-01-07T19:54:43.625Z,30.67
2023-01-07T19:57:10.555Z,24.38
2023-01-07T19:59:37.299Z,27.52
2023-01-07T20:02:04.866Z,25.83
2023-01-07T20:04:31.770Z,23.30
2023-01-07T20:06:58.607Z,18.60
2023-01-07T20:09:25.496Z,19.63
2023-01-07T20:11:52.286Z,17.50
2023-01-07T20:14:19.138Z,18.85
2023-01-07T20:16:46.110Z,17.40
2023-01-07T20:19:13.013Z,19.83
2023-01-07T20:21:40.829Z,21.23
2023-01-07T20:24:08.055Z,20.50
2023-01-07T20:26:35.655Z,18.92
2023-01-07T20:29:02.400Z,17.65
2023-01-07T20:31:31.034Z,18.20
2023-01-07T20:33:59.116Z,16.20
2023-01-07T20:36:28.959Z,17.60
2023-01-07T20:38:56.164Z,18.27
2023-01-07T20:41:27.335Z,18.95
2023-01-07T20:43:56.328Z,18.17
2023-01-07T20:46:24.702Z,17.70
2023-01-07T20:48:52.227Z,17.70
2023-01-07T20:51:19.652Z,19.42
2023-01-07T20:53:47.372Z,18.58
2023-01-07T20:56:17.525Z,18.05
2023-01-07T20:58:44.466Z,19.08
2023-01-07T21:01:14.570Z,17.52
2023-01-07T21:03:42.254Z,17.33
2023-01-07T21:06:10.702Z,18.83
2023-01-07T21:08:38.154Z,20.23
2023-01-07T21:11:12.064Z,18.15
2023-01-07T21:13:39.195Z,18.95
2023-01-07T21:16:06.552Z,17.58
2023-01-07T21:18:34.293Z,17.92
2023-01-07T21:21:07.342Z,20.58
2023-01-07T21:23:34.474Z,20.55
2023-01-07T21:26:01.283Z,18.23
2023-01-07T21:28:28.095Z,20.23
2023-01-07T21:30:55.092Z,19.52
2023-01-07T21:33:21.851Z,20.45
2023-01-07T21:35:48.614Z,20.73
2023-01-07T21:38:15.411Z,20.98
2023-01-07T21:40:42.193Z,19.58
2023-01-07T21:43:08.959Z,20.90
2023-01-07T21:45:36.945Z,19.02
2023-01-07T21:48:04.155Z,20.70
2023-01-07T21:50:31.605Z,19.80
2023-01-07T21:52:58.552Z,21.35
2023-01-07T21:55:25.395Z,21.80
2023-01-07T21:57:52.138Z,19.02
2023-01-07T22:00:19.282Z,21.02
2023-01-07T22:02:46.182Z,20.27
2023-01-07T22:05:13.564Z,21.77
2023-01-07T22:07:40.389Z,22.90
2023-01-07T22:10:07.894Z,21.33
2023-01-07T22:12:34.769Z,22.65
2023-01-07T22:15:01.990Z,19.67
2023-01-07T22:17:28.849Z,21.27
2023-01-07T22:19:55.695Z,22.20
2023-01-07T22:22:22.569Z,22.20
2023-01-07T22:24:49.311Z,22.88
2023-01-07T22:27:16.090Z,28.70
2023-01-07T22:29:44.586Z,28.92
2023-01-07T22:32:11.366Z,24.10
2023-01-07T22:34:38.208Z,25.25
2023-01-07T22:37:14.447Z,22.17
2023-01-07T22:39:51.923Z,25.40
2023-01-07T22:42:22.865Z,24.63
2023-01-07T22:44:53.720Z,23.27
2023-01-07T22:47:25.966Z,24.52
2023-01-07T22:49:53.572Z,27.20
2023-01-07T22:52:20.729Z,25.00
2023-01-07T22:54:47.677Z,24.67
2023-01-07T22:57:14.929Z,23.75
2023-01-07T22:59:42.299Z,24.85
2023-01-07T23:02:09.804Z,23.05
2023-01-07T23:04:36.726Z,24.10
2023-01-07T23:07:03.592Z,23.80
2023-01-07T23:09:30.798Z,23.80
2023-01-07T23:12:00.584Z,24.90
2023-01-07T23:14:29.511Z,22.75
2023-01-07T23:16:57.114Z,22.77
2023-01-07T23:19:23.959Z,27.60
2023-01-07T23:21:53.911Z,27.85
2023-01-07T23:24:22.157Z,24.00
2023-01-07T23:26:51.435Z,24.63
2023-01-07T23:29:19.411Z,26.02
2023-01-07T23:31:46.344Z,25.35
2023-01-07T23:34:13.887Z,24.63
2023-01-07T23:36:40.712Z,23.10
2023-01-07T23:39:07.853Z,24.88
2023-01-07T23:41:34.834Z,25.58
2023-01-07T23:44:01.606Z,27.58
2023-01-07T23:46:28.372Z,25.88
2023-01-07T23:48:55.597Z,28.45
2023-01-07T23:51:22.438Z,26.95
2023-01-07T23:53:49.573Z,25.35
2023-01-07T23:56:20.669Z,24.75
2023-01-07T23:58:48.520Z,27.23
